Time;durP1;ratioP1;P1;durP2;ratioP2;P2;SDS_P1;SDS_P2;PMS_P1;PMS_P2;Temp;Humidity;BMP_temperature;BMP_pressure;BME280_temperature;BME280_humidity;BME280_pressure;Samples;Min_cycle;Max_cycle;Signal;HPM_P1;HPM_P2
2021/08/02 00:01:09;;;;;;;4.53;2.40;;;14.80;99.90;;;;;;6196461;23;20815;-68
2021/08/02 00:03:46;;;;;;;4.20;3.07;;;14.80;99.90;;;;;;6196811;23;20374;-68
2021/08/02 00:06:22;;;;;;;5.60;2.60;;;14.80;99.90;;;;;;6186398;23;20483;-68
2021/08/02 00:08:57;;;;;;;5.60;2.47;;;14.70;99.90;;;;;;6196532;23;20363;-68
2021/08/02 00:11:32;;;;;;;5.60;2.70;;;14.70;99.90;;;;;;6196238;23;20424;-68
2021/08/02 00:14:04;;;;;;;4.80;3.00;;;14.60;99.90;;;;;;6196409;23;20395;-68
2021/08/02 00:16:32;;;;;;;3.47;2.20;;;14.70;99.90;;;;;;6186421;23;20822;-68
2021/08/02 00:19:01;;;;;;;5.90;2.40;;;14.60;99.90;;;;;;6158707;23;20475;-68
2021/08/02 00:21:29;;;;;;;4.20;2.80;;;14.70;99.90;;;;;;6196549;23;20334;-68
2021/08/02 00:23:59;;;;;;;3.28;2.40;;;14.60;99.90;;;;;;6194960;23;20472;-68
2021/08/02 00:26:28;;;;;;;6.53;3.10;;;14.70;99.90;;;;;;6196389;23;20264;-68
2021/08/02 00:28:59;;;;;;;4.57;2.60;;;14.70;99.90;;;;;;6196276;23;20400;-68
2021/08/02 00:31:27;;;;;;;7.50;2.50;;;14.60;99.90;;;;;;6196560;23;20949;-68
2021/08/02 00:33:55;;;;;;;4.70;2.30;;;14.60;99.90;;;;;;6196082;23;20367;-68
2021/08/02 00:36:32;;;;;;;6.50;2.30;;;14.50;99.90;;;;;;6196395;23;20454;-68
2021/08/02 00:39:06;;;;;;;4.17;2.77;;;14.50;99.90;;;;;;6196059;23;20394;-68
2021/08/02 00:42:14;;;;;;;5.00;2.40;;;14.50;99.90;;;;;;6186036;23;20433;-68
2021/08/02 00:45:14;;;;;;;4.93;2.13;;;14.40;99.90;;;;;;6154732;23;20771;-68
2021/08/02 00:47:47;;;;;;;4.47;2.40;;;14.40;99.90;;;;;;6185997;23;20442;-68
2021/08/02 00:50:19;;;;;;;6.03;2.00;;;14.40;99.90;;;;;;6196003;23;20862;-68
2021/08/02 00:52:53;;;;;;;4.22;2.90;;;14.40;99.90;;;;;;6194406;23;20948;-68
2021/08/02 00:55:28;;;;;;;3.97;2.47;;;14.40;99.90;;;;;;6196330;23;20423;-68
2021/08/02 00:57:58;;;;;;;4.65;3.00;;;14.40;99.90;;;;;;6195151;23;20482;-68
2021/08/02 01:00:27;;;;;;;6.20;2.40;;;14.40;99.90;;;;;;6160390;23;20226;-68
2021/08/02 01:02:56;;;;;;;3.93;2.53;;;14.40;99.90;;;;;;6195618;23;20756;-68
2021/08/02 01:05:26;;;;;;;4.53;2.60;;;14.40;99.90;;;;;;6186605;23;20453;-68
2021/08/02 01:07:59;;;;;;;3.67;2.57;;;14.30;99.90;;;;;;6195998;23;20398;-68
2021/08/02 01:10:33;;;;;;;5.63;2.80;;;14.30;99.90;;;;;;6159456;23;20788;-68
2021/08/02 01:13:07;;;;;;;6.43;3.43;;;14.20;99.90;;;;;;6159313;23;20466;-68
2021/08/02 01:15:38;;;;;;;4.73;3.60;;;14.20;99.90;;;;;;6159380;23;20404;-68
2021/08/02 01:18:12;;;;;;;4.37;3.23;;;14.20;99.90;;;;;;6186063;23;20871;-68
2021/08/02 01:20:46;;;;;;;5.30;3.10;;;14.20;99.90;;;;;;6196289;23;20375;-68
2021/08/02 01:23:17;;;;;;;5.50;2.90;;;14.10;99.90;;;;;;6196660;23;20388;-68
2021/08/02 01:26:15;;;;;;;4.93;2.60;;;14.10;99.90;;;;;;6159125;23;20497;-68
2021/08/02 01:29:21;;;;;;;4.70;3.07;;;14.10;99.90;;;;;;6195842;23;20422;-68
2021/08/02 01:31:49;;;;;;;5.97;3.10;;;14.10;99.90;;;;;;6195425;23;20441;-68
2021/08/02 01:34:20;;;;;;;7.63;3.83;;;14.10;99.90;;;;;;6159300;23;20685;-68
2021/08/02 01:36:49;;;;;;;5.67;2.93;;;14.10;99.90;;;;;;6185915;23;20750;-68
2021/08/02 01:39:21;;;;;;;6.23;3.50;;;14.00;99.90;;;;;;6159694;23;20417;-68
2021/08/02 01:41:49;;;;;;;3.47;2.80;;;14.00;99.90;;;;;;6195570;23;20413;-68
2021/08/02 01:44:18;;;;;;;6.17;3.30;;;14.00;99.90;;;;;;6158967;23;20417;-68
2021/08/02 01:46:56;;;;;;;5.80;2.67;;;14.00;99.90;;;;;;6195267;23;20894;-68
2021/08/02 01:49:32;;;;;;;4.47;2.60;;;14.00;99.90;;;;;;6159277;23;20418;-68
2021/08/02 01:52:03;;;;;;;5.07;3.07;;;14.00;99.90;;;;;;6159054;23;20454;-68
2021/08/02 01:54:45;;;;;;;3.30;2.70;;;14.00;99.90;;;;;;6159295;23;20400;-68
2021/08/02 01:57:19;;;;;;;3.70;3.10;;;14.00;99.90;;;;;;6195781;23;20391;-68
2021/08/02 02:00:01;;;;;;;4.40;3.23;;;13.90;99.90;;;;;;6159192;23;20443;-68
2021/08/02 02:02:51;;;;;;;6.35;3.15;;;13.90;99.90;;;;;;6184043;23;20431;-68
2021/08/02 02:05:24;;;;;;;8.00;4.13;;;14.00;99.90;;;;;;6159130;23;20171;-68
2021/08/02 02:07:59;;;;;;;4.53;2.80;;;14.00;99.90;;;;;;6158035;23;20874;-68
2021/08/02 02:10:41;;;;;;;4.53;2.90;;;14.00;99.90;;;;;;6159760;23;20560;-68
2021/08/02 02:13:15;;;;;;;6.23;3.43;;;14.00;99.90;;;;;;6158831;23;20522;-68
2021/08/02 02:15:49;;;;;;;6.07;2.90;;;14.00;99.90;;;;;;6159323;23;20414;-68
2021/08/02 02:18:21;;;;;;;9.00;4.57;;;14.00;99.90;;;;;;6195996;23;20388;-68
2021/08/02 02:20:50;;;;;;;5.20;2.67;;;13.90;99.90;;;;;;6158904;23;20418;-68
2021/08/02 02:23:22;;;;;;;5.40;3.20;;;13.90;99.90;;;;;;6185295;23;20942;-68
2021/08/02 02:25:52;;;;;;;3.20;2.53;;;14.00;99.90;;;;;;6159021;23;20518;-68
2021/08/02 02:28:23;;;;;;;8.07;3.00;;;13.90;99.90;;;;;;6158966;23;20405;-68
2021/08/02 02:31:02;;;;;;;5.93;3.03;;;13.90;99.90;;;;;;6158865;23;20439;-68
2021/08/02 02:33:34;;;;;;;4.80;3.40;;;13.90;99.90;;;;;;6158982;23;20426;-68
2021/08/02 02:36:04;;;;;;;5.90;2.90;;;13.90;99.90;;;;;;6158838;23;20427;-68
2021/08/02 02:38:34;;;;;;;5.43;3.30;;;13.90;99.90;;;;;;6194053;23;20403;-68
2021/08/02 02:41:05;;;;;;;4.33;2.90;;;13.90;99.90;;;;;;6153599;23;20957;-68
2021/08/02 02:43:40;;;;;;;5.13;2.93;;;14.00;99.90;;;;;;6155035;23;20425;-68
2021/08/02 02:46:11;;;;;;;9.40;4.70;;;13.90;99.90;;;;;;6154307;23;20413;-68
2021/08/02 02:48:40;;;;;;;5.57;3.30;;;13.90;99.90;;;;;;6153934;23;20405;-68
2021/08/02 02:51:11;;;;;;;4.80;3.23;;;13.90;99.90;;;;;;6153684;23;20527;-68
2021/08/02 02:53:40;;;;;;;5.03;3.20;;;13.90;99.90;;;;;;6165749;23;20714;-68
2021/08/02 02:56:11;;;;;;;4.70;3.30;;;13.90;99.90;;;;;;6154273;23;20818;-68
2021/08/02 02:58:41;;;;;;;4.50;2.90;;;13.80;99.90;;;;;;6155739;23;20419;-68
2021/08/02 03:01:13;;;;;;;4.27;2.93;;;13.80;99.90;;;;;;6155604;23;20461;-68
2021/08/02 03:03:46;;;;;;;6.10;2.93;;;13.90;99.90;;;;;;6167446;23;20444;-68
2021/08/02 03:06:16;;;;;;;3.83;2.37;;;13.90;99.90;;;;;;6155911;23;20448;-68
2021/08/02 03:08:46;;;;;;;4.83;3.07;;;13.80;99.90;;;;;;6155630;23;20446;-68
2021/08/02 03:11:20;;;;;;;3.90;2.60;;;13.90;99.90;;;;;;6155669;23;20446;-68
2021/08/02 03:13:50;;;;;;;4.60;2.80;;;13.90;99.90;;;;;;6167097;23;20839;-68
2021/08/02 03:16:19;;;;;;;5.83;2.70;;;13.90;99.90;;;;;;6167905;23;20160;-68
2021/08/02 03:18:48;;;;;;;4.10;2.70;;;13.90;99.90;;;;;;6166541;23;20919;-68
2021/08/02 03:21:17;;;;;;;7.47;3.20;;;13.90;99.90;;;;;;6167307;23;20719;-68
2021/08/02 03:23:58;;;;;;;4.60;3.23;;;13.90;99.90;;;;;;6167549;23;20401;-68
2021/08/02 03:26:31;;;;;;;4.20;2.33;;;13.90;99.90;;;;;;6167574;23;20862;-68
2021/08/02 03:29:03;;;;;;;4.73;3.17;;;13.90;99.90;;;;;;6155652;23;20423;-68
2021/08/02 03:31:42;;;;;;;6.67;3.60;;;13.90;99.90;;;;;;6155518;23;20431;-68
2021/08/02 03:34:14;;;;;;;4.87;3.10;;;13.90;99.90;;;;;;6166947;23;20792;-68
2021/08/02 03:36:44;;;;;;;4.30;2.50;;;13.90;99.90;;;;;;6167405;23;20420;-68
2021/08/02 03:39:15;;;;;;;5.90;3.03;;;13.90;99.90;;;;;;6165621;23;20400;-68
2021/08/02 03:41:45;;;;;;;7.60;4.10;;;13.90;99.90;;;;;;6190842;23;20438;-68
2021/08/02 03:44:14;;;;;;;5.30;2.93;;;13.90;99.90;;;;;;6160242;23;20458;-68
2021/08/02 03:46:43;;;;;;;3.80;3.40;;;13.90;99.90;;;;;;6196715;23;20417;-68
2021/08/02 03:49:11;;;;;;;3.70;2.70;;;13.90;99.90;;;;;;6160224;23;20795;-68
2021/08/02 03:51:48;;;;;;;3.97;3.13;;;13.90;99.90;;;;;;6196389;23;20473;-68
2021/08/02 03:54:17;;;;;;;7.37;2.83;;;13.90;99.90;;;;;;6196954;23;20901;-68
2021/08/02 03:56:47;;;;;;;5.73;3.10;;;13.90;99.90;;;;;;6196604;23;20433;-68
2021/08/02 03:59:15;;;;;;;4.50;2.90;;;13.90;99.90;;;;;;6197154;23;20772;-68
2021/08/02 04:01:45;;;;;;;6.60;2.80;;;13.90;99.90;;;;;;6159873;23;20473;-68
2021/08/02 04:04:14;;;;;;;3.57;2.70;;;13.90;99.90;;;;;;6196394;23;20392;-68
2021/08/02 04:06:43;;;;;;;3.10;2.73;;;13.90;99.90;;;;;;6160001;23;20450;-68
2021/08/02 04:09:13;;;;;;;5.33;2.83;;;13.90;99.90;;;;;;6195904;23;20374;-68
2021/08/02 04:11:45;;;;;;;3.50;2.40;;;14.00;99.90;;;;;;6196554;23;20482;-68
2021/08/02 04:14:14;;;;;;;3.90;2.70;;;14.00;99.90;;;;;;6186426;23;20395;-68
2021/08/02 04:16:43;;;;;;;3.60;2.73;;;14.00;99.90;;;;;;6160079;23;20483;-68
2021/08/02 04:19:12;;;;;;;4.80;3.07;;;14.00;99.90;;;;;;6196686;23;20428;-68
2021/08/02 04:21:40;;;;;;;6.40;2.93;;;14.00;99.90;;;;;;6196525;23;20782;-68
2021/08/02 04:24:08;;;;;;;4.57;2.90;;;14.00;99.90;;;;;;6196333;23;20703;-68
2021/08/02 04:26:36;;;;;;;5.90;3.70;;;14.00;99.90;;;;;;6196135;23;20498;-68
2021/08/02 04:29:04;;;;;;;4.67;3.20;;;14.00;99.90;;;;;;6196341;23;20543;-68
2021/08/02 04:31:34;;;;;;;5.53;3.30;;;14.00;99.90;;;;;;6196312;23;20885;-68
2021/08/02 04:34:04;;;;;;;3.50;2.80;;;14.00;99.90;;;;;;6196055;23;20185;-68
2021/08/02 04:36:32;;;;;;;8.27;3.53;;;14.10;99.90;;;;;;6196347;23;20478;-68
2021/08/02 04:39:00;;;;;;;5.87;3.23;;;14.00;99.90;;;;;;6196207;23;20407;-68
2021/08/02 04:41:28;;;;;;;4.60;2.83;;;14.10;99.90;;;;;;6154599;23;20924;-68
2021/08/02 04:43:56;;;;;;;7.03;2.83;;;14.10;99.90;;;;;;6156325;23;20462;-68
2021/08/02 04:46:24;;;;;;;6.10;2.83;;;14.10;99.90;;;;;;6156377;23;20412;-68
2021/08/02 04:48:54;;;;;;;4.47;2.80;;;14.10;99.90;;;;;;6156335;23;20721;-68
2021/08/02 04:51:22;;;;;;;3.30;2.70;;;14.10;99.90;;;;;;6154573;23;20747;-68
2021/08/02 04:53:50;;;;;;;3.90;2.87;;;14.20;99.90;;;;;;6166175;23;20492;-68
2021/08/02 04:56:18;;;;;;;7.30;3.67;;;14.20;99.90;;;;;;6166257;23;20407;-68
2021/08/02 04:58:46;;;;;;;5.40;2.80;;;14.20;99.90;;;;;;6166245;23;20436;-68
2021/08/02 05:01:14;;;;;;;4.07;3.00;;;14.20;99.90;;;;;;6154659;23;20446;-68
2021/08/02 05:03:43;;;;;;;6.57;3.85;;;14.20;99.90;;;;;;6165463;23;20403;-68
2021/08/02 05:06:12;;;;;;;5.70;3.03;;;14.30;99.90;;;;;;6154544;23;20267;-68
2021/08/02 05:08:41;;;;;;;4.03;3.10;;;14.30;99.90;;;;;;6165652;23;20404;-68
2021/08/02 05:11:09;;;;;;;5.40;2.50;;;14.30;99.90;;;;;;6165672;23;20210;-68
2021/08/02 05:13:37;;;;;;;4.40;3.23;;;14.30;99.90;;;;;;6166326;23;20432;-68
2021/08/02 05:16:06;;;;;;;4.83;3.70;;;14.30;99.90;;;;;;6166051;23;20478;-68
2021/08/02 05:18:34;;;;;;;8.60;3.10;;;14.40;99.90;;;;;;6154803;23;20507;-68
2021/08/02 05:21:07;;;;;;;6.03;3.00;;;14.40;99.90;;;;;;6166220;23;20412;-68
2021/08/02 05:23:36;;;;;;;3.57;3.00;;;14.40;99.90;;;;;;6154626;23;20491;-68
2021/08/02 05:26:04;;;;;;;6.77;3.60;;;14.40;99.90;;;;;;6166017;23;20495;-68
2021/08/02 05:28:33;;;;;;;3.60;2.90;;;14.40;99.90;;;;;;6166375;23;20480;-68
2021/08/02 05:31:01;;;;;;;6.43;2.80;;;14.40;99.90;;;;;;6157215;23;20507;-68
2021/08/02 05:33:30;;;;;;;6.00;2.93;;;14.50;99.90;;;;;;6158085;23;20753;-68
2021/08/02 05:36:01;;;;;;;7.50;3.47;;;14.50;99.90;;;;;;6168023;23;20484;-68
2021/08/02 05:38:30;;;;;;;4.63;2.30;;;14.50;99.90;;;;;;6156520;23;20392;-67
2021/08/02 05:40:59;;;;;;;4.00;2.95;;;14.50;99.90;;;;;;6155585;23;20479;-68
2021/08/02 05:43:27;;;;;;;12.53;5.23;;;14.60;99.90;;;;;;6156553;23;20192;-68
2021/08/02 05:45:56;;;;;;;4.57;3.30;;;14.60;99.90;;;;;;6167139;23;20419;-68
2021/08/02 05:48:25;;;;;;;6.13;2.67;;;14.70;99.90;;;;;;6167220;23;20176;-68
2021/08/02 05:50:53;;;;;;;4.50;2.63;;;14.70;99.90;;;;;;6166978;23;20500;-68
2021/08/02 05:53:21;;;;;;;6.13;2.70;;;14.80;99.90;;;;;;6165877;23;20486;-68
2021/08/02 05:55:49;;;;;;;3.43;3.00;;;14.80;99.90;;;;;;6166205;23;20481;-68
2021/08/02 05:58:19;;;;;;;3.60;2.80;;;14.80;99.90;;;;;;6165806;23;20854;-68
2021/08/02 06:00:48;;;;;;;6.83;2.70;;;14.80;99.90;;;;;;6154315;23;20395;-68
2021/08/02 06:03:16;;;;;;;8.50;2.97;;;14.90;99.90;;;;;;6165851;23;20830;-68
2021/08/02 06:05:44;;;;;;;5.27;2.83;;;14.90;99.90;;;;;;6165871;23;20471;-68
2021/08/02 06:08:12;;;;;;;5.10;2.37;;;14.90;99.90;;;;;;6166016;23;20397;-68
2021/08/02 06:10:40;;;;;;;5.50;2.87;;;15.00;99.90;;;;;;6154189;23;20792;-69
2021/08/02 06:13:08;;;;;;;4.17;2.97;;;15.10;99.90;;;;;;6154289;23;20483;-68
2021/08/02 06:15:38;;;;;;;5.77;2.67;;;15.10;99.90;;;;;;6166230;23;20780;-66
2021/08/02 06:18:06;;;;;;;3.70;2.70;;;15.20;99.90;;;;;;6155280;23;20417;-66
2021/08/02 06:20:34;;;;;;;3.50;2.57;;;15.30;99.90;;;;;;6155834;23;20173;-66
2021/08/02 06:23:04;;;;;;;4.47;2.75;;;15.30;99.90;;;;;;6165732;23;20395;-66
2021/08/02 06:25:32;;;;;;;6.07;2.40;;;15.40;99.90;;;;;;6165833;23;20620;-66
2021/08/02 06:28:00;;;;;;;4.93;2.27;;;15.40;99.90;;;;;;6165768;23;20379;-66
2021/08/02 06:30:28;;;;;;;6.43;2.60;;;15.40;99.90;;;;;;6165689;23;20789;-66
2021/08/02 06:32:57;;;;;;;3.73;2.30;;;15.40;99.90;;;;;;6167274;23;20420;-66
2021/08/02 06:35:26;;;;;;;10.93;3.07;;;15.40;99.90;;;;;;6167695;23;20428;-66
2021/08/02 06:37:54;;;;;;;4.83;2.40;;;15.50;99.90;;;;;;6167600;23;20414;-66
2021/08/02 06:40:22;;;;;;;6.70;2.80;;;15.50;99.90;;;;;;6169010;23;20744;-66
2021/08/02 06:42:51;;;;;;;2.60;2.40;;;15.60;99.90;;;;;;6197447;23;20796;-66
2021/08/02 06:45:19;;;;;;;5.73;2.97;;;15.60;99.90;;;;;;6197350;23;20381;-66
2021/08/02 06:47:47;;;;;;;2.37;2.10;;;15.60;99.90;;;;;;6161118;23;20470;-66
2021/08/02 06:50:16;;;;;;;3.07;2.40;;;15.60;99.90;;;;;;6197336;23;20374;-66
2021/08/02 06:52:44;;;;;;;3.20;2.50;;;15.70;99.90;;;;;;6160855;23;20489;-66
2021/08/02 06:55:12;;;;;;;5.70;2.58;;;15.80;99.90;;;;;;6195798;23;20437;-66
2021/08/02 06:57:41;;;;;;;2.23;2.03;;;15.90;99.90;;;;;;6197318;23;20165;-66
2021/08/02 07:00:10;;;;;;;4.53;2.43;;;16.00;99.90;;;;;;6196367;23;20421;-66
2021/08/02 07:02:38;;;;;;;2.53;1.80;;;16.20;99.90;;;;;;6197255;23;20933;-66
2021/08/02 07:05:08;;;;;;;2.23;2.00;;;16.30;99.90;;;;;;6161092;23;20407;-66
2021/08/02 07:07:38;;;;;;;4.70;2.13;;;16.50;99.90;;;;;;6160777;23;20390;-67
2021/08/02 07:10:08;;;;;;;4.13;2.13;;;16.50;99.90;;;;;;6160703;23;20965;-66
2021/08/02 07:12:36;;;;;;;5.77;2.20;;;16.60;99.90;;;;;;6197426;23;20514;-66
2021/08/02 07:15:06;;;;;;;3.37;1.90;;;16.60;99.90;;;;;;6196955;23;20427;-66
2021/08/02 07:17:34;;;;;;;4.40;2.43;;;16.60;99.90;;;;;;6197428;23;20396;-66
2021/08/02 07:20:02;;;;;;;4.83;2.70;;;16.60;99.90;;;;;;6187406;23;20429;-66
2021/08/02 07:22:30;;;;;;;7.50;3.57;;;16.60;99.90;;;;;;6197102;23;20422;-67
2021/08/02 07:24:59;;;;;;;4.47;2.20;;;16.60;99.90;;;;;;6187367;23;20378;-67
2021/08/02 07:27:27;;;;;;;3.87;2.10;;;16.60;99.90;;;;;;6197374;23;20482;-66
2021/08/02 07:29:56;;;;;;;5.32;2.13;;;16.60;99.90;;;;;;6159913;23;20394;-66
2021/08/02 07:32:24;;;;;;;3.30;2.20;;;16.60;99.90;;;;;;6196900;23;20220;-66
2021/08/02 07:34:52;;;;;;;5.17;2.20;;;16.70;99.90;;;;;;6160490;23;20453;-66
2021/08/02 07:37:20;;;;;;;3.10;1.97;;;16.80;99.90;;;;;;6187253;23;20404;-66
2021/08/02 07:39:48;;;;;;;5.90;2.30;;;16.90;99.90;;;;;;6196720;23;20842;-67
2021/08/02 07:42:17;;;;;;;3.43;1.90;;;17.00;99.90;;;;;;6186718;23;20431;-66
2021/08/02 07:44:45;;;;;;;5.00;2.33;;;17.10;99.90;;;;;;6197182;23;20483;-67
2021/08/02 07:47:14;;;;;;;3.30;2.30;;;17.10;99.90;;;;;;6196768;23;20855;-66
2021/08/02 07:49:42;;;;;;;4.10;2.50;;;17.20;99.90;;;;;;6197493;23;20395;-66
2021/08/02 07:52:10;;;;;;;3.60;1.97;;;17.20;99.90;;;;;;6197061;23;20447;-67
2021/08/02 07:54:38;;;;;;;5.30;2.60;;;17.20;99.90;;;;;;6160252;23;20418;-67
2021/08/02 07:57:07;;;;;;;2.90;2.47;;;17.30;99.90;;;;;;6196976;23;20859;-66
2021/08/02 07:59:36;;;;;;;4.17;1.87;;;17.30;99.90;;;;;;6196534;23;20406;-66
2021/08/02 08:02:05;;;;;;;5.00;2.37;;;17.40;99.90;;;;;;6160170;23;20806;-68
2021/08/02 08:04:33;;;;;;;4.90;2.50;;;17.40;99.90;;;;;;6159624;23;20413;-68
2021/08/02 08:07:01;;;;;;;2.23;2.00;;;17.50;99.90;;;;;;6186533;23;20180;-68
2021/08/02 08:09:29;;;;;;;3.83;2.22;;;17.60;99.90;;;;;;6196019;23;20892;-68
2021/08/02 08:11:57;;;;;;;6.70;2.87;;;17.60;99.90;;;;;;6159975;23;20652;-68
2021/08/02 08:14:25;;;;;;;3.93;2.70;;;17.60;99.90;;;;;;6186275;23;20938;-68
2021/08/02 08:16:55;;;;;;;4.13;1.93;;;17.70;99.90;;;;;;6186700;23;20385;-68
2021/08/02 08:19:24;;;;;;;5.13;2.10;;;17.70;99.90;;;;;;6159974;23;20394;-68
2021/08/02 08:21:52;;;;;;;6.63;2.20;;;17.80;99.90;;;;;;6196316;23;20808;-68
2021/08/02 08:24:20;;;;;;;3.23;1.87;;;17.90;99.90;;;;;;6196335;23;20454;-68
2021/08/02 08:26:48;;;;;;;2.60;1.63;;;18.00;99.90;;;;;;6196322;23;20375;-68
2021/08/02 08:29:16;;;;;;;4.80;1.97;;;18.20;99.90;;;;;;6196572;23;20848;-68
2021/08/02 08:31:44;;;;;;;4.43;1.83;;;18.20;99.90;;;;;;6196097;23;20507;-68
2021/08/02 08:34:14;;;;;;;4.70;2.00;;;18.40;99.90;;;;;;6159775;23;20416;-68
2021/08/02 08:36:42;;;;;;;5.10;1.63;;;18.50;99.90;;;;;;6196151;23;20400;-68
2021/08/02 08:39:10;;;;;;;2.90;2.00;;;18.70;99.90;;;;;;6158678;23;20458;-68
2021/08/02 08:41:38;;;;;;;3.23;1.87;;;18.90;99.90;;;;;;6196563;23;20275;-68
2021/08/02 08:44:07;;;;;;;1.80;1.50;;;19.10;99.90;;;;;;6196412;23;20396;-68
2021/08/02 08:46:36;;;;;;;2.73;1.50;;;19.30;99.90;;;;;;6159783;23;20872;-68
2021/08/02 08:49:04;;;;;;;3.33;1.80;;;19.40;99.90;;;;;;6196028;23;20961;-68
2021/08/02 08:51:36;;;;;;;2.67;2.00;;;19.40;99.90;;;;;;6186293;23;20507;-68
2021/08/02 08:54:06;;;;;;;3.73;1.90;;;19.60;99.90;;;;;;6196435;23;20698;-68
2021/08/02 08:56:34;;;;;;;5.53;2.20;;;19.70;99.90;;;;;;6195848;23;21012;-68
2021/08/02 08:59:03;;;;;;;1.93;1.50;;;19.70;99.90;;;;;;6195992;23;20788;-68
2021/08/02 09:01:32;;;;;;;2.83;1.57;;;19.80;99.90;;;;;;6159509;23;20515;-68
2021/08/02 09:04:03;;;;;;;2.40;1.60;;;19.80;99.90;;;;;;6195897;23;20399;-68
2021/08/02 09:06:31;;;;;;;2.37;1.50;;;20.00;99.90;;;;;;6196278;23;20401;-68
2021/08/02 09:09:00;;;;;;;1.30;1.20;;;20.00;99.90;;;;;;6185791;23;20768;-68
2021/08/02 09:11:30;;;;;;;2.47;1.50;;;20.00;99.90;;;;;;6195278;23;20411;-68
2021/08/02 09:14:08;;;;;;;2.67;1.40;;;20.10;99.90;;;;;;6159417;23;20177;-68
2021/08/02 09:16:37;;;;;;;3.33;1.47;;;20.10;99.90;;;;;;6159461;23;20436;-69
2021/08/02 09:19:10;;;;;;;2.70;1.77;;;20.00;99.90;;;;;;6185839;23;20414;-68
2021/08/02 09:21:42;;;;;;;3.00;1.23;;;19.90;99.90;;;;;;6159326;23;20527;-69
2021/08/02 09:24:12;;;;;;;2.13;1.93;;;19.80;99.90;;;;;;6186186;23;20415;-68
2021/08/02 09:26:42;;;;;;;2.27;1.40;;;19.70;99.90;;;;;;6185721;23;20391;-69
2021/08/02 09:29:10;;;;;;;3.47;2.20;;;19.60;99.90;;;;;;6195712;23;20487;-68
2021/08/02 09:31:40;;;;;;;4.47;1.70;;;19.50;99.90;;;;;;6195542;23;20424;-69
2021/08/02 09:34:09;;;;;;;3.03;1.47;;;19.40;99.90;;;;;;6186627;23;20404;-69
2021/08/02 09:36:39;;;;;;;4.03;1.50;;;19.30;99.90;;;;;;6185774;23;20807;-69
2021/08/02 09:39:09;;;;;;;3.10;1.90;;;19.10;99.90;;;;;;6194846;23;20498;-70
2021/08/02 09:41:39;;;;;;;4.45;1.70;;;19.00;99.90;;;;;;6195334;23;20929;-69
2021/08/02 09:44:18;;;;;;;2.50;1.70;;;18.80;99.90;;;;;;6196361;23;20165;-70
2021/08/02 09:46:54;;;;;;;2.83;2.13;;;18.60;99.90;;;;;;6196447;23;20454;-70
2021/08/02 09:49:23;;;;;;;3.67;1.63;;;18.40;99.90;;;;;;6186230;23;20400;-70
2021/08/02 09:51:51;;;;;;;4.43;2.20;;;18.20;99.90;;;;;;6186047;23;20502;-70
2021/08/02 09:54:24;;;;;;;1.43;1.17;;;18.10;99.90;;;;;;6186103;23;20471;-70
2021/08/02 09:56:54;;;;;;;2.40;1.63;;;18.00;99.90;;;;;;6195880;23;20452;-70
2021/08/02 09:59:23;;;;;;;2.80;1.60;;;18.00;99.90;;;;;;6159474;23;20417;-70
2021/08/02 10:01:54;;;;;;;3.47;1.80;;;17.90;99.90;;;;;;6195499;23;20473;-70
2021/08/02 10:04:24;;;;;;;4.17;2.03;;;18.00;99.90;;;;;;6159709;23;20870;-70
2021/08/02 10:06:54;;;;;;;3.90;1.57;;;18.00;99.90;;;;;;6185447;23;20479;-69
2021/08/02 10:09:23;;;;;;;5.10;2.00;;;18.00;99.90;;;;;;6159099;23;20478;-70
2021/08/02 10:11:52;;;;;;;3.10;1.60;;;18.10;99.90;;;;;;6159026;23;20432;-69
2021/08/02 10:14:29;;;;;;;2.40;1.80;;;18.10;99.90;;;;;;6195846;23;20718;-70
2021/08/02 10:17:01;;;;;;;3.50;1.60;;;18.30;99.90;;;;;;6196047;23;20416;-70
2021/08/02 10:19:40;;;;;;;3.08;1.80;;;18.50;99.90;;;;;;6194465;23;20391;-70
2021/08/02 10:22:09;;;;;;;6.90;1.93;;;18.70;99.90;;;;;;6195580;23;20212;-70
2021/08/02 10:24:47;;;;;;;4.90;2.27;;;18.80;99.90;;;;;;6195764;23;20400;-70
2021/08/02 10:27:26;;;;;;;6.20;2.07;;;18.90;99.90;;;;;;6195795;23;20688;-70
2021/08/02 10:30:07;;;;;;;6.10;2.00;;;19.00;99.90;;;;;;6186363;23;20398;-71
2021/08/02 10:32:35;;;;;;;2.20;1.70;;;19.00;99.90;;;;;;6158958;23;20489;-70
2021/08/02 10:35:06;;;;;;;5.43;1.30;;;19.00;99.90;;;;;;6195564;23;20483;-70
2021/08/02 10:37:35;;;;;;;2.47;1.47;;;18.90;99.90;;;;;;6196023;23;20403;-70
2021/08/02 10:40:13;;;;;;;3.93;1.20;;;18.90;99.90;;;;;;6195182;23;20510;-70
2021/08/02 10:42:51;;;;;;;2.63;1.83;;;18.90;99.90;;;;;;6158916;23;21025;-70
2021/08/02 10:45:30;;;;;;;1.90;0.93;;;18.90;99.90;;;;;;6195654;23;20439;-70
2021/08/02 10:47:58;;;;;;;3.20;1.17;;;19.00;99.90;;;;;;6195649;23;20438;-70
2021/08/02 10:50:28;;;;;;;1.77;1.20;;;19.00;99.90;;;;;;6157484;23;20422;-70
2021/08/02 10:52:57;;;;;;;2.10;1.50;;;19.10;99.90;;;;;;6195156;23;20251;-70
2021/08/02 10:55:29;;;;;;;2.77;1.53;;;19.10;99.90;;;;;;6195135;23;20396;-70
2021/08/02 10:58:00;;;;;;;1.90;1.43;;;19.10;99.90;;;;;;6195427;23;20743;-70
2021/08/02 11:00:28;;;;;;;1.87;1.70;;;19.10;99.90;;;;;;6158761;23;20440;-70
2021/08/02 11:02:58;;;;;;;1.87;1.40;;;19.10;99.90;;;;;;6195086;23;20420;-70
2021/08/02 11:05:32;;;;;;;3.30;2.17;;;19.10;99.90;;;;;;6195122;23;20399;-70
2021/08/02 11:08:05;;;;;;;4.20;1.40;;;19.20;99.90;;;;;;6195229;23;20381;-70
2021/08/02 11:10:34;;;;;;;1.90;1.50;;;19.40;99.90;;;;;;6195144;23;20478;-70
2021/08/02 11:13:26;;;;;;;3.35;1.40;;;19.40;99.90;;;;;;6194936;23;20449;-70
2021/08/02 11:15:55;;;;;;;2.07;1.60;;;19.60;99.90;;;;;;6195496;23;20216;-69
2021/08/02 11:18:25;;;;;;;1.70;1.30;;;19.80;99.90;;;;;;6196260;23;20399;-69
2021/08/02 11:20:54;;;;;;;2.87;1.70;;;19.80;99.90;;;;;;6196864;23;20403;-70
2021/08/02 11:23:32;;;;;;;1.87;1.20;;;19.80;99.90;;;;;;6196914;23;20404;-70
2021/08/02 11:26:07;;;;;;;2.37;1.10;;;19.90;99.90;;;;;;6197230;23;20435;-70
2021/08/02 11:28:42;;;;;;;2.77;1.43;;;19.90;99.90;;;;;;6197177;23;20380;-70
2021/08/02 11:31:11;;;;;;;2.03;1.73;;;19.90;99.90;;;;;;6196859;23;20823;-70
2021/08/02 11:33:41;;;;;;;2.10;1.30;;;19.90;99.90;;;;;;6196881;23;20403;-70
2021/08/02 11:36:16;;;;;;;2.53;1.40;;;19.90;99.90;;;;;;6160325;23;20522;-70
2021/08/02 11:38:45;;;;;;;1.60;1.10;;;19.80;99.90;;;;;;6196783;23;20854;-70
2021/08/02 11:41:25;;;;;;;2.70;1.47;;;19.80;99.90;;;;;;6186438;23;20474;-70
2021/08/02 11:43:56;;;;;;;3.03;1.60;;;19.80;99.90;;;;;;6159681;23;20419;-70
2021/08/02 11:46:25;;;;;;;3.37;1.50;;;19.90;99.90;;;;;;6197115;23;20372;-70
2021/08/02 11:48:54;;;;;;;2.22;1.20;;;20.00;99.90;;;;;;6196623;23;20404;-70
2021/08/02 11:51:22;;;;;;;2.60;1.50;;;20.10;99.90;;;;;;6196604;23;20188;-70
2021/08/02 11:53:50;;;;;;;1.50;0.97;;;20.20;99.90;;;;;;6186610;23;20953;-70
2021/08/02 11:56:19;;;;;;;1.77;1.50;;;20.40;99.90;;;;;;6196498;23;20518;-70
2021/08/02 11:58:50;;;;;;;1.50;1.30;;;20.50;99.90;;;;;;6196589;23;20397;-70
2021/08/02 12:01:20;;;;;;;2.10;1.03;;;20.60;99.90;;;;;;6197216;23;20459;-70
2021/08/02 12:03:48;;;;;;;3.23;1.20;;;20.70;99.90;;;;;;6186811;23;20404;-70
2021/08/02 12:06:18;;;;;;;2.10;1.10;;;20.70;99.90;;;;;;6160277;23;20409;-70
2021/08/02 12:08:52;;;;;;;1.87;1.13;;;20.70;99.90;;;;;;6196830;23;20411;-70
2021/08/02 12:11:21;;;;;;;1.80;1.40;;;20.60;99.90;;;;;;6196415;23;20510;-70
2021/08/02 12:13:50;;;;;;;1.58;1.05;;;20.50;99.90;;;;;;6186234;23;20882;-70
2021/08/02 12:16:33;;;;;;;7.03;1.30;;;20.40;99.90;;;;;;6186616;23;20192;-70
2021/08/02 12:19:06;;;;;;;1.60;1.50;;;20.30;99.90;;;;;;6186393;23;20392;-70
2021/08/02 12:21:36;;;;;;;2.63;1.25;;;20.30;99.90;;;;;;6158546;23;20415;-70
2021/08/02 12:24:06;;;;;;;2.80;1.03;;;20.30;99.90;;;;;;6196537;23;20219;-70
2021/08/02 12:26:38;;;;;;;3.40;1.50;;;20.30;99.90;;;;;;6196307;23;20828;-70
2021/08/02 12:29:06;;;;;;;1.20;0.80;;;20.30;99.90;;;;;;6196591;23;20813;-70
2021/08/02 12:31:38;;;;;;;1.80;1.00;;;20.20;99.90;;;;;;6196247;23;20788;-70
2021/08/02 12:34:07;;;;;;;4.20;0.90;;;20.20;99.90;;;;;;6196986;23;20466;-69
2021/08/02 12:36:35;;;;;;;1.37;1.27;;;20.20;99.90;;;;;;6196211;23;20910;-68
2021/08/02 12:39:03;;;;;;;1.93;1.10;;;20.20;99.80;;;;;;6195604;23;20396;-68
2021/08/02 12:41:38;;;;;;;1.70;1.20;;;20.20;99.80;;;;;;6196050;23;20486;-68
2021/08/02 12:44:24;;;;;;;2.65;1.08;;;20.30;99.80;;;;;;6185366;23;20465;-68
2021/08/02 12:46:54;;;;;;;2.77;1.27;;;20.40;99.40;;;;;;6159765;23;20253;-68
2021/08/02 12:49:22;;;;;;;2.17;1.00;;;20.50;99.40;;;;;;6195989;23;20403;-68
2021/08/02 12:51:51;;;;;;;2.53;1.47;;;20.50;99.20;;;;;;6196251;23;20707;-68
2021/08/02 12:54:20;;;;;;;1.50;1.03;;;20.50;99.30;;;;;;6195950;23;20411;-68
2021/08/02 12:56:48;;;;;;;1.50;1.10;;;20.50;99.20;;;;;;6196277;23;20494;-68
2021/08/02 12:59:16;;;;;;;1.97;1.40;;;20.40;99.30;;;;;;6159849;23;20416;-68
2021/08/02 13:01:45;;;;;;;1.90;1.00;;;20.40;99.40;;;;;;6186133;23;20478;-68
2021/08/02 13:04:14;;;;;;;2.60;1.10;;;20.30;99.30;;;;;;6159531;23;20415;-68
2021/08/02 13:06:42;;;;;;;3.60;1.03;;;20.30;99.20;;;;;;6159554;23;20423;-68